sensor_id;sensor_type;location;lat;lon;timestamp;temperature;humidity
569;DHT22;269;48.884;9.192;2022-07-11T00:02:03;18.10;99.90
569;DHT22;269;48.884;9.192;2022-07-11T00:04:33;18.00;99.90
569;DHT22;269;48.884;9.192;2022-07-11T00:07:04;18.10;99.90
569;DHT22;269;48.884;9.192;2022-07-11T00:09:33;18.00;99.90
569;DHT22;269;48.884;9.192;2022-07-11T00:12:03;18.10;99.90
569;DHT22;269;48.884;9.192;2022-07-11T00:14:30;18.10;99.90
569;DHT22;269;48.884;9.192;2022-07-11T00:17:00;18.00;99.90
569;DHT22;269;48.884;9.192;2022-07-11T00:23:10;18.10;99.90
569;DHT22;269;48.884;9.192;2022-07-11T00:25:38;18.10;99.90
569;DHT22;269;48.884;9.192;2022-07-11T00:28:19;18.00;99.90
569;DHT22;269;48.884;9.192;2022-07-11T00:30:46;18.10;99.90
569;DHT22;269;48.884;9.192;2022-07-11T00:33:14;17.80;99.90
569;DHT22;269;48.884;9.192;2022-07-11T00:35:41;17.60;99.90
569;DHT22;269;48.884;9.192;2022-07-11T00:38:10;17.60;99.90
569;DHT22;269;48.884;9.192;2022-07-11T00:40:38;17.40;99.90
569;DHT22;269;48.884;9.192;2022-07-11T00:43:06;17.50;99.90
569;DHT22;269;48.884;9.192;2022-07-11T00:45:34;17.60;99.90
569;DHT22;269;48.884;9.192;2022-07-11T00:48:03;17.50;99.90
569;DHT22;269;48.884;9.192;2022-07-11T00:50:30;17.40;99.90
569;DHT22;269;48.884;9.192;2022-07-11T00:52:58;17.40;99.90
569;DHT22;269;48.884;9.192;2022-07-11T00:55:41;17.50;99.90
569;DHT22;269;48.884;9.192;2022-07-11T00:58:09;17.50;99.90
569;DHT22;269;48.884;9.192;2022-07-11T01:01:03;17.50;99.90
569;DHT22;269;48.884;9.192;2022-07-11T01:03:34;17.30;99.90
569;DHT22;269;48.884;9.192;2022-07-11T01:06:05;17.20;99.90
569;DHT22;269;48.884;9.192;2022-07-11T01:08:33;17.50;99.90
569;DHT22;269;48.884;9.192;2022-07-11T01:11:03;17.40;99.90
569;DHT22;269;48.884;9.192;2022-07-11T01:13:35;17.20;99.90
569;DHT22;269;48.884;9.192;2022-07-11T01:16:12;17.00;99.90
569;DHT22;269;48.884;9.192;2022-07-11T01:18:42;17.10;99.90
569;DHT22;269;48.884;9.192;2022-07-11T01:21:23;17.10;99.90
569;DHT22;269;48.884;9.192;2022-07-11T01:23:54;16.90;99.90
569;DHT22;269;48.884;9.192;2022-07-11T01:26:23;16.90;99.90
569;DHT22;269;48.884;9.192;2022-07-11T01:28:53;16.90;99.90
569;DHT22;269;48.884;9.192;2022-07-11T01:31:23;16.90;99.90
569;DHT22;269;48.884;9.192;2022-07-11T01:33:52;17.10;99.90
569;DHT22;269;48.884;9.192;2022-07-11T01:36:22;17.10;99.90
569;DHT22;269;48.884;9.192;2022-07-11T01:38:51;16.90;99.90
569;DHT22;269;48.884;9.192;2022-07-11T01:41:19;16.90;99.90
569;DHT22;269;48.884;9.192;2022-07-11T01:43:46;17.00;99.90
569;DHT22;269;48.884;9.192;2022-07-11T01:46:14;17.00;99.90
569;DHT22;269;48.884;9.192;2022-07-11T01:52:23;16.80;99.90
569;DHT22;269;48.884;9.192;2022-07-11T01:54:53;16.60;99.90
569;DHT22;269;48.884;9.192;2022-07-11T01:57:20;16.50;99.90
569;DHT22;269;48.884;9.192;2022-07-11T02:00:00;16.50;99.90
569;DHT22;269;48.884;9.192;2022-07-11T02:02:29;16.40;99.90
569;DHT22;269;48.884;9.192;2022-07-11T02:04:58;16.50;99.90
569;DHT22;269;48.884;9.192;2022-07-11T02:07:26;16.50;99.90
569;DHT22;269;48.884;9.192;2022-07-11T02:10:09;16.60;99.90
569;DHT22;269;48.884;9.192;2022-07-11T02:12:36;16.60;99.90
569;DHT22;269;48.884;9.192;2022-07-11T02:15:03;16.60;99.90
569;DHT22;269;48.884;9.192;2022-07-11T02:17:31;16.60;99.90
569;DHT22;269;48.884;9.192;2022-07-11T02:19:58;16.60;99.90
569;DHT22;269;48.884;9.192;2022-07-11T02:22:25;16.60;99.90
569;DHT22;269;48.884;9.192;2022-07-11T02:24:53;16.70;99.90
569;DHT22;269;48.884;9.192;2022-07-11T02:27:32;16.70;99.90
569;DHT22;269;48.884;9.192;2022-07-11T02:29:59;16.70;99.90
569;DHT22;269;48.884;9.192;2022-07-11T02:32:26;16.70;99.90
569;DHT22;269;48.884;9.192;2022-07-11T02:34:53;16.70;99.90
569;DHT22;269;48.884;9.192;2022-07-11T02:37:34;16.60;99.90
569;DHT22;269;48.884;9.192;2022-07-11T02:40:01;16.60;99.90
569;DHT22;269;48.884;9.192;2022-07-11T02:42:28;16.60;99.90
569;DHT22;269;48.884;9.192;2022-07-11T02:44:57;16.60;99.90
569;DHT22;269;48.884;9.192;2022-07-11T02:47:28;16.60;99.90
569;DHT22;269;48.884;9.192;2022-07-11T02:49:55;16.70;99.90
569;DHT22;269;48.884;9.192;2022-07-11T02:52:23;16.70;99.90
569;DHT22;269;48.884;9.192;2022-07-11T02:55:10;16.70;99.90
569;DHT22;269;48.884;9.192;2022-07-11T02:57:52;16.70;99.90
569;DHT22;269;48.884;9.192;2022-07-11T03:00:20;16.80;99.90
569;DHT22;269;48.884;9.192;2022-07-11T03:02:48;16.70;99.90
569;DHT22;269;48.884;9.192;2022-07-11T03:05:15;16.80;99.90
569;DHT22;269;48.884;9.192;2022-07-11T03:07:43;16.80;99.90
569;DHT22;269;48.884;9.192;2022-07-11T03:10:12;16.80;99.90
569;DHT22;269;48.884;9.192;2022-07-11T03:12:39;16.90;99.90
569;DHT22;269;48.884;9.192;2022-07-11T03:15:08;16.90;99.90
569;DHT22;269;48.884;9.192;2022-07-11T03:17:36;16.90;99.90
569;DHT22;269;48.884;9.192;2022-07-11T03:20:04;16.90;99.90
569;DHT22;269;48.884;9.192;2022-07-11T03:22:34;16.90;99.90
569;DHT22;269;48.884;9.192;2022-07-11T03:25:02;17.00;99.90
569;DHT22;269;48.884;9.192;2022-07-11T03:27:31;17.00;99.90
569;DHT22;269;48.884;9.192;2022-07-11T03:29:58;17.00;99.90
569;DHT22;269;48.884;9.192;2022-07-11T03:32:26;17.00;99.90
569;DHT22;269;48.884;9.192;2022-07-11T03:34:54;17.10;99.90
569;DHT22;269;48.884;9.192;2022-07-11T03:37:39;17.10;99.90
569;DHT22;269;48.884;9.192;2022-07-11T03:40:07;17.10;99.90
569;DHT22;269;48.884;9.192;2022-07-11T03:42:36;17.20;99.90
569;DHT22;269;48.884;9.192;2022-07-11T03:45:06;17.20;99.90
569;DHT22;269;48.884;9.192;2022-07-11T03:47:34;17.20;99.90
569;DHT22;269;48.884;9.192;2022-07-11T03:50:16;17.30;99.90
569;DHT22;269;48.884;9.192;2022-07-11T03:52:44;17.40;99.90
569;DHT22;269;48.884;9.192;2022-07-11T03:55:11;17.40;99.90
569;DHT22;269;48.884;9.192;2022-07-11T03:57:39;17.40;99.90
569;DHT22;269;48.884;9.192;2022-07-11T04:00:07;17.40;99.90
569;DHT22;269;48.884;9.192;2022-07-11T04:02:35;17.40;99.90
569;DHT22;269;48.884;9.192;2022-07-11T04:05:02;17.50;99.90
569;DHT22;269;48.884;9.192;2022-07-11T04:07:31;17.50;99.90
569;DHT22;269;48.884;9.192;2022-07-11T04:09:59;17.60;99.90
569;DHT22;269;48.884;9.192;2022-07-11T04:12:26;17.50;99.90
569;DHT22;269;48.884;9.192;2022-07-11T04:14:53;17.50;99.90
569;DHT22;269;48.884;9.192;2022-07-11T04:17:22;17.60;99.90
569;DHT22;269;48.884;9.192;2022-07-11T04:19:49;17.50;99.90
569;DHT22;269;48.884;9.192;2022-07-11T04:22:16;17.50;99.90
569;DHT22;269;48.884;9.192;2022-07-11T04:24:45;17.50;99.90
569;DHT22;269;48.884;9.192;2022-07-11T04:27:12;17.50;99.90
569;DHT22;269;48.884;9.192;2022-07-11T04:29:39;17.50;99.90
569;DHT22;269;48.884;9.192;2022-07-11T04:32:07;17.40;99.90
569;DHT22;269;48.884;9.192;2022-07-11T04:34:34;17.40;99.90
569;DHT22;269;48.884;9.192;2022-07-11T04:37:01;17.50;99.90
569;DHT22;269;48.884;9.192;2022-07-11T04:39:28;17.50;99.90
569;DHT22;269;48.884;9.192;2022-07-11T04:41:57;17.50;99.90
569;DHT22;269;48.884;9.192;2022-07-11T04:44:23;17.50;99.90
569;DHT22;269;48.884;9.192;2022-07-11T04:46:52;17.60;99.90
569;DHT22;269;48.884;9.192;2022-07-11T04:49:19;17.70;99.90
569;DHT22;269;48.884;9.192;2022-07-11T04:51:46;17.70;99.90
569;DHT22;269;48.884;9.192;2022-07-11T04:54:13;17.80;99.90
569;DHT22;269;48.884;9.192;2022-07-11T04:56:41;17.80;99.90
569;DHT22;269;48.884;9.192;2022-07-11T04:59:09;17.60;99.90
569;DHT22;269;48.884;9.192;2022-07-11T05:01:36;17.50;99.90
569;DHT22;269;48.884;9.192;2022-07-11T05:04:04;17.40;99.90
569;DHT22;269;48.884;9.192;2022-07-11T05:06:31;17.40;99.90
569;DHT22;269;48.884;9.192;2022-07-11T05:08:58;17.40;99.90
569;DHT22;269;48.884;9.192;2022-07-11T05:11:25;17.40;99.90
569;DHT22;269;48.884;9.192;2022-07-11T05:13:52;17.40;99.90
569;DHT22;269;48.884;9.192;2022-07-11T05:16:21;17.50;99.90
569;DHT22;269;48.884;9.192;2022-07-11T05:18:48;17.50;99.90
569;DHT22;269;48.884;9.192;2022-07-11T05:21:15;17.50;99.90
569;DHT22;269;48.884;9.192;2022-07-11T05:23:48;17.50;99.90
569;DHT22;269;48.884;9.192;2022-07-11T05:26:15;17.60;99.90
569;DHT22;269;48.884;9.192;2022-07-11T05:28:42;17.70;99.90
569;DHT22;269;48.884;9.192;2022-07-11T05:31:09;17.80;99.90
569;DHT22;269;48.884;9.192;2022-07-11T05:33:37;17.70;99.90
569;DHT22;269;48.884;9.192;2022-07-11T05:36:05;17.70;99.90
569;DHT22;269;48.884;9.192;2022-07-11T05:38:32;17.70;99.90
569;DHT22;269;48.884;9.192;2022-07-11T05:40:59;17.70;99.90
569;DHT22;269;48.884;9.192;2022-07-11T05:43:26;17.80;99.90
569;DHT22;269;48.884;9.192;2022-07-11T05:45:54;17.90;99.90
569;DHT22;269;48.884;9.192;2022-07-11T05:48:21;17.90;99.90
569;DHT22;269;48.884;9.192;2022-07-11T05:50:50;17.90;99.90
569;DHT22;269;48.884;9.192;2022-07-11T05:53:17;18.00;99.90
569;DHT22;269;48.884;9.192;2022-07-11T05:55:44;18.30;99.90
569;DHT22;269;48.884;9.192;2022-07-11T05:58:11;18.50;99.90
569;DHT22;269;48.884;9.192;2022-07-11T06:00:38;18.40;99.90
569;DHT22;269;48.884;9.192;2022-07-11T06:03:05;18.60;99.90
569;DHT22;269;48.884;9.192;2022-07-11T06:05:32;18.70;99.90
569;DHT22;269;48.884;9.192;2022-07-11T06:08:01;18.90;99.90
569;DHT22;269;48.884;9.192;2022-07-11T06:10:45;19.10;99.90
569;DHT22;269;48.884;9.192;2022-07-11T06:13:13;19.20;99.90
569;DHT22;269;48.884;9.192;2022-07-11T06:15:40;19.40;99.90
569;DHT22;269;48.884;9.192;2022-07-11T06:18:07;19.50;99.90
569;DHT22;269;48.884;9.192;2022-07-11T06:20:34;19.60;99.90
569;DHT22;269;48.884;9.192;2022-07-11T06:23:03;19.70;99.90
569;DHT22;269;48.884;9.192;2022-07-11T06:25:32;19.70;99.90
569;DHT22;269;48.884;9.192;2022-07-11T06:27:59;19.70;99.90
569;DHT22;269;48.884;9.192;2022-07-11T06:30:26;19.60;99.90
569;DHT22;269;48.884;9.192;2022-07-11T06:32:53;19.60;99.90
569;DHT22;269;48.884;9.192;2022-07-11T06:35:21;19.70;99.90
569;DHT22;269;48.884;9.192;2022-07-11T06:37:48;19.90;99.90
569;DHT22;269;48.884;9.192;2022-07-11T06:40:16;20.10;99.90
569;DHT22;269;48.884;9.192;2022-07-11T06:42:44;20.20;99.90
569;DHT22;269;48.884;9.192;2022-07-11T06:45:11;20.30;99.90
569;DHT22;269;48.884;9.192;2022-07-11T06:47:38;20.40;99.90
569;DHT22;269;48.884;9.192;2022-07-11T06:50:06;20.50;99.90
569;DHT22;269;48.884;9.192;2022-07-11T06:52:33;20.60;99.90
569;DHT22;269;48.884;9.192;2022-07-11T06:55:01;20.80;99.90
569;DHT22;269;48.884;9.192;2022-07-11T06:57:29;20.90;99.90
569;DHT22;269;48.884;9.192;2022-07-11T06:59:56;20.90;99.90
569;DHT22;269;48.884;9.192;2022-07-11T07:02:23;20.50;99.90
569;DHT22;269;48.884;9.192;2022-07-11T07:04:54;20.30;99.90
569;DHT22;269;48.884;9.192;2022-07-11T07:07:21;20.40;99.90
569;DHT22;269;48.884;9.192;2022-07-11T07:09:48;20.40;99.90
569;DHT22;269;48.884;9.192;2022-07-11T07:12:15;20.50;99.90
569;DHT22;269;48.884;9.192;2022-07-11T07:14:44;20.60;99.90
569;DHT22;269;48.884;9.192;2022-07-11T07:17:11;20.70;99.90
569;DHT22;269;48.884;9.192;2022-07-11T07:19:38;20.70;99.90
569;DHT22;269;48.884;9.192;2022-07-11T07:22:05;20.70;99.90
569;DHT22;269;48.884;9.192;2022-07-11T07:24:34;20.90;99.90
569;DHT22;269;48.884;9.192;2022-07-11T07:27:02;21.30;99.90
569;DHT22;269;48.884;9.192;2022-07-11T07:29:29;21.40;99.90
569;DHT22;269;48.884;9.192;2022-07-11T07:31:58;21.50;99.90
569;DHT22;269;48.884;9.192;2022-07-11T07:34:25;21.60;99.90
569;DHT22;269;48.884;9.192;2022-07-11T07:36:52;21.80;99.90
569;DHT22;269;48.884;9.192;2022-07-11T07:39:19;21.90;99.90
569;DHT22;269;48.884;9.192;2022-07-11T07:41:46;21.90;99.90
569;DHT22;269;48.884;9.192;2022-07-11T07:44:13;22.10;99.90
569;DHT22;269;48.884;9.192;2022-07-11T07:46:41;22.00;99.90
569;DHT22;269;48.884;9.192;2022-07-11T07:49:09;22.00;99.90
569;DHT22;269;48.884;9.192;2022-07-11T07:51:37;22.10;99.90
569;DHT22;269;48.884;9.192;2022-07-11T07:54:04;22.00;99.90
569;DHT22;269;48.884;9.192;2022-07-11T07:56:31;22.20;99.90
569;DHT22;269;48.884;9.192;2022-07-11T07:58:58;22.50;99.90
569;DHT22;269;48.884;9.192;2022-07-11T08:01:25;22.80;99.90
569;DHT22;269;48.884;9.192;2022-07-11T08:04:02;22.90;99.90
569;DHT22;269;48.884;9.192;2022-07-11T08:06:35;23.20;99.90
569;DHT22;269;48.884;9.192;2022-07-11T08:09:04;23.40;99.90
569;DHT22;269;48.884;9.192;2022-07-11T08:11:32;23.70;99.90
569;DHT22;269;48.884;9.192;2022-07-11T08:13:59;23.90;99.90
569;DHT22;269;48.884;9.192;2022-07-11T08:16:28;24.50;99.90
569;DHT22;269;48.884;9.192;2022-07-11T08:18:55;25.30;99.90
569;DHT22;269;48.884;9.192;2022-07-11T08:21:23;26.00;98.50
569;DHT22;269;48.884;9.192;2022-07-11T08:23:52;26.60;97.00
569;DHT22;269;48.884;9.192;2022-07-11T08:26:20;27.00;95.90
569;DHT22;269;48.884;9.192;2022-07-11T08:28:47;27.00;95.40
569;DHT22;269;48.884;9.192;2022-07-11T08:31:14;27.00;94.50
569;DHT22;269;48.884;9.192;2022-07-11T08:33:41;27.10;94.20
569;DHT22;269;48.884;9.192;2022-07-11T08:36:09;27.80;93.60
569;DHT22;269;48.884;9.192;2022-07-11T08:38:36;28.40;92.00
569;DHT22;269;48.884;9.192;2022-07-11T08:41:06;29.10;90.80
569;DHT22;269;48.884;9.192;2022-07-11T08:43:33;29.30;88.70
569;DHT22;269;48.884;9.192;2022-07-11T08:46:00;29.60;86.00
569;DHT22;269;48.884;9.192;2022-07-11T08:48:28;29.10;84.30
569;DHT22;269;48.884;9.192;2022-07-11T08:50:56;28.30;85.90
569;DHT22;269;48.884;9.192;2022-07-11T08:53:23;27.80;87.40
569;DHT22;269;48.884;9.192;2022-07-11T08:55:50;27.70;89.40
569;DHT22;269;48.884;9.192;2022-07-11T08:58:19;27.90;87.80
569;DHT22;269;48.884;9.192;2022-07-11T09:00:47;28.50;86.10
569;DHT22;269;48.884;9.192;2022-07-11T09:03:15;29.40;85.70
569;DHT22;269;48.884;9.192;2022-07-11T09:05:43;30.60;79.80
569;DHT22;269;48.884;9.192;2022-07-11T09:08:10;31.20;77.90
569;DHT22;269;48.884;9.192;2022-07-11T09:10:38;31.20;75.80
569;DHT22;269;48.884;9.192;2022-07-11T09:13:08;31.20;75.60
569;DHT22;269;48.884;9.192;2022-07-11T09:15:40;31.40;74.50
569;DHT22;269;48.884;9.192;2022-07-11T09:18:32;31.40;70.60
569;DHT22;269;48.884;9.192;2022-07-11T09:21:02;31.20;71.90
569;DHT22;269;48.884;9.192;2022-07-11T09:23:47;31.70;70.20
569;DHT22;269;48.884;9.192;2022-07-11T09:26:33;32.20;68.10
569;DHT22;269;48.884;9.192;2022-07-11T09:29:05;31.80;66.60
569;DHT22;269;48.884;9.192;2022-07-11T09:31:35;30.90;67.80
569;DHT22;269;48.884;9.192;2022-07-11T09:34:04;30.70;69.70
569;DHT22;269;48.884;9.192;2022-07-11T09:36:37;30.90;70.60
569;DHT22;269;48.884;9.192;2022-07-11T09:39:06;30.90;68.50
569;DHT22;269;48.884;9.192;2022-07-11T09:41:34;30.50;69.90
569;DHT22;269;48.884;9.192;2022-07-11T09:44:20;29.60;70.10
569;DHT22;269;48.884;9.192;2022-07-11T09:46:51;28.80;72.20
569;DHT22;269;48.884;9.192;2022-07-11T09:49:31;28.40;72.60
569;DHT22;269;48.884;9.192;2022-07-11T09:52:07;28.40;72.90
569;DHT22;269;48.884;9.192;2022-07-11T09:54:52;28.40;73.10
569;DHT22;269;48.884;9.192;2022-07-11T09:57:27;28.30;74.10
569;DHT22;269;48.884;9.192;2022-07-11T09:59:55;28.40;74.70
569;DHT22;269;48.884;9.192;2022-07-11T10:02:24;28.20;72.60
569;DHT22;269;48.884;9.192;2022-07-11T10:04:51;27.70;73.10
569;DHT22;269;48.884;9.192;2022-07-11T10:07:19;27.40;74.40
569;DHT22;269;48.884;9.192;2022-07-11T10:09:46;27.50;76.00
569;DHT22;269;48.884;9.192;2022-07-11T10:12:13;28.00;76.00
569;DHT22;269;48.884;9.192;2022-07-11T10:14:41;28.50;74.70
569;DHT22;269;48.884;9.192;2022-07-11T10:17:14;29.10;72.30
569;DHT22;269;48.884;9.192;2022-07-11T10:19:53;29.50;69.50
569;DHT22;269;48.884;9.192;2022-07-11T10:22:29;29.40;70.90
569;DHT22;269;48.884;9.192;2022-07-11T10:25:02;29.20;70.30
569;DHT22;269;48.884;9.192;2022-07-11T10:27:36;28.70;72.10
569;DHT22;269;48.884;9.192;2022-07-11T10:30:07;29.00;71.40
569;DHT22;269;48.884;9.192;2022-07-11T10:32:57;29.20;70.20
569;DHT22;269;48.884;9.192;2022-07-11T10:35:28;29.50;70.50
569;DHT22;269;48.884;9.192;2022-07-11T10:37:56;29.50;67.60
569;DHT22;269;48.884;9.192;2022-07-11T10:40:42;28.80;70.50
569;DHT22;269;48.884;9.192;2022-07-11T10:43:11;28.80;70.60
569;DHT22;269;48.884;9.192;2022-07-11T10:46:04;28.90;71.10
569;DHT22;269;48.884;9.192;2022-07-11T10:48:35;28.70;71.00
569;DHT22;269;48.884;9.192;2022-07-11T10:51:14;28.30;71.50
569;DHT22;269;48.884;9.192;2022-07-11T10:53:46;28.10;73.10
569;DHT22;269;48.884;9.192;2022-07-11T10:56:24;28.30;73.40
569;DHT22;269;48.884;9.192;2022-07-11T10:59:00;28.60;73.10
569;DHT22;269;48.884;9.192;2022-07-11T11:01:29;28.20;72.00
569;DHT22;269;48.884;9.192;2022-07-11T11:06:59;28.20;73.30
569;DHT22;269;48.884;9.192;2022-07-11T11:09:41;28.30;74.00
569;DHT22;269;48.884;9.192;2022-07-11T11:12:09;28.50;73.90
569;DHT22;269;48.884;9.192;2022-07-11T11:14:36;28.90;73.00
569;DHT22;269;48.884;9.192;2022-07-11T11:17:33;29.00;72.00
569;DHT22;269;48.884;9.192;2022-07-11T11:20:01;29.00;72.00
569;DHT22;269;48.884;9.192;2022-07-11T11:22:30;28.70;72.20
569;DHT22;269;48.884;9.192;2022-07-11T11:24:57;28.30;73.30
569;DHT22;269;48.884;9.192;2022-07-11T11:27:25;29.00;73.70
569;DHT22;269;48.884;9.192;2022-07-11T11:29:54;29.70;70.20
569;DHT22;269;48.884;9.192;2022-07-11T11:32:22;29.80;69.50
569;DHT22;269;48.884;9.192;2022-07-11T11:34:54;29.80;69.90
569;DHT22;269;48.884;9.192;2022-07-11T11:37:22;30.40;68.60
569;DHT22;269;48.884;9.192;2022-07-11T11:39:57;31.20;67.00
569;DHT22;269;48.884;9.192;2022-07-11T11:42:24;31.50;66.60
569;DHT22;269;48.884;9.192;2022-07-11T11:44:56;31.70;66.80
569;DHT22;269;48.884;9.192;2022-07-11T11:47:25;31.90;65.60
569;DHT22;269;48.884;9.192;2022-07-11T11:49:52;31.80;65.70
569;DHT22;269;48.884;9.192;2022-07-11T11:52:20;31.70;66.10
569;DHT22;269;48.884;9.192;2022-07-11T11:54:53;31.30;66.70
569;DHT22;269;48.884;9.192;2022-07-11T11:57:23;31.10;67.10
569;DHT22;269;48.884;9.192;2022-07-11T11:59:52;30.80;66.20
569;DHT22;269;48.884;9.192;2022-07-11T12:02:27;30.50;67.70
569;DHT22;269;48.884;9.192;2022-07-11T12:04:56;31.20;67.70
569;DHT22;269;48.884;9.192;2022-07-11T12:07:28;32.00;66.10
569;DHT22;269;48.884;9.192;2022-07-11T12:09:58;32.70;63.70
569;DHT22;269;48.884;9.192;2022-07-11T12:12:30;32.90;63.60
569;DHT22;269;48.884;9.192;2022-07-11T12:15:27;32.70;62.30
569;DHT22;269;48.884;9.192;2022-07-11T12:17:59;31.80;64.00
569;DHT22;269;48.884;9.192;2022-07-11T12:20:38;31.70;63.70
569;DHT22;269;48.884;9.192;2022-07-11T12:23:07;31.60;63.70
569;DHT22;269;48.884;9.192;2022-07-11T12:25:36;31.80;63.90
569;DHT22;269;48.884;9.192;2022-07-11T12:28:04;31.80;63.20
569;DHT22;269;48.884;9.192;2022-07-11T12:30:34;31.60;63.40
569;DHT22;269;48.884;9.192;2022-07-11T12:33:05;31.60;63.00
569;DHT22;269;48.884;9.192;2022-07-11T12:35:33;31.60;63.00
569;DHT22;269;48.884;9.192;2022-07-11T12:38:01;31.50;63.40
569;DHT22;269;48.884;9.192;2022-07-11T12:40:28;31.60;64.40
569;DHT22;269;48.884;9.192;2022-07-11T12:42:56;31.80;63.70
569;DHT22;269;48.884;9.192;2022-07-11T12:45:23;31.80;62.50
569;DHT22;269;48.884;9.192;2022-07-11T12:47:51;31.90;63.10
569;DHT22;269;48.884;9.192;2022-07-11T12:50:21;31.70;63.00
569;DHT22;269;48.884;9.192;2022-07-11T12:52:50;31.90;63.00
569;DHT22;269;48.884;9.192;2022-07-11T12:55:26;31.60;63.60
569;DHT22;269;48.884;9.192;2022-07-11T12:58:15;32.00;63.90
569;DHT22;269;48.884;9.192;2022-07-11T13:00:55;32.40;64.00
569;DHT22;269;48.884;9.192;2022-07-11T13:03:28;32.20;62.10
569;DHT22;269;48.884;9.192;2022-07-11T13:05:56;32.10;61.70
569;DHT22;269;48.884;9.192;2022-07-11T13:08:27;31.60;63.00
569;DHT22;269;48.884;9.192;2022-07-11T13:11:12;31.10;63.70
569;DHT22;269;48.884;9.192;2022-07-11T13:13:41;30.60;64.90
569;DHT22;269;48.884;9.192;2022-07-11T13:16:08;30.10;66.40
569;DHT22;269;48.884;9.192;2022-07-11T13:18:36;29.90;67.40
569;DHT22;269;48.884;9.192;2022-07-11T13:21:03;29.80;67.70
569;DHT22;269;48.884;9.192;2022-07-11T13:23:32;29.60;68.10
569;DHT22;269;48.884;9.192;2022-07-11T13:26:00;29.60;68.20
569;DHT22;269;48.884;9.192;2022-07-11T13:28:27;29.20;68.10
569;DHT22;269;48.884;9.192;2022-07-11T13:30:55;28.90;69.00
569;DHT22;269;48.884;9.192;2022-07-11T13:33:23;28.70;69.60
569;DHT22;269;48.884;9.192;2022-07-11T13:35:50;28.70;70.90
569;DHT22;269;48.884;9.192;2022-07-11T13:38:19;28.70;70.30
569;DHT22;269;48.884;9.192;2022-07-11T13:40:47;28.60;70.60
569;DHT22;269;48.884;9.192;2022-07-11T13:43:14;28.70;71.10
569;DHT22;269;48.884;9.192;2022-07-11T13:45:42;28.70;71.10
569;DHT22;269;48.884;9.192;2022-07-11T13:48:11;28.90;71.20
569;DHT22;269;48.884;9.192;2022-07-11T13:50:39;28.80;70.70
569;DHT22;269;48.884;9.192;2022-07-11T13:53:06;28.70;71.10
569;DHT22;269;48.884;9.192;2022-07-11T13:55:33;28.70;71.60
569;DHT22;269;48.884;9.192;2022-07-11T13:58:01;28.70;71.80
569;DHT22;269;48.884;9.192;2022-07-11T14:00:29;28.80;71.50
569;DHT22;269;48.884;9.192;2022-07-11T14:02:58;29.00;71.20
569;DHT22;269;48.884;9.192;2022-07-11T14:05:26;29.00;70.80
569;DHT22;269;48.884;9.192;2022-07-11T14:07:53;29.10;71.30
569;DHT22;269;48.884;9.192;2022-07-11T14:10:20;29.20;71.10
569;DHT22;269;48.884;9.192;2022-07-11T14:12:47;29.40;70.30
569;DHT22;269;48.884;9.192;2022-07-11T14:15:14;29.40;70.10
569;DHT22;269;48.884;9.192;2022-07-11T14:17:41;29.30;70.00
569;DHT22;269;48.884;9.192;2022-07-11T14:20:09;29.20;70.70
569;DHT22;269;48.884;9.192;2022-07-11T14:22:38;29.20;70.30
569;DHT22;269;48.884;9.192;2022-07-11T14:25:06;29.30;70.70
569;DHT22;269;48.884;9.192;2022-07-11T14:27:34;29.40;70.10
569;DHT22;269;48.884;9.192;2022-07-11T14:30:04;29.50;69.40
569;DHT22;269;48.884;9.192;2022-07-11T14:32:31;30.00;69.40
569;DHT22;269;48.884;9.192;2022-07-11T14:34:58;30.80;67.70
569;DHT22;269;48.884;9.192;2022-07-11T14:37:25;31.20;67.70
569;DHT22;269;48.884;9.192;2022-07-11T14:39:53;32.70;64.50
569;DHT22;269;48.884;9.192;2022-07-11T14:42:20;33.40;62.20
569;DHT22;269;48.884;9.192;2022-07-11T14:44:47;33.90;61.80
569;DHT22;269;48.884;9.192;2022-07-11T14:47:16;33.90;60.70
569;DHT22;269;48.884;9.192;2022-07-11T14:49:43;33.40;60.60
569;DHT22;269;48.884;9.192;2022-07-11T14:52:10;34.30;59.60
569;DHT22;269;48.884;9.192;2022-07-11T14:54:37;35.50;58.70
569;DHT22;269;48.884;9.192;2022-07-11T14:57:06;36.00;56.90
569;DHT22;269;48.884;9.192;2022-07-11T14:59:33;36.40;56.10
569;DHT22;269;48.884;9.192;2022-07-11T15:02:00;36.70;55.50
569;DHT22;269;48.884;9.192;2022-07-11T15:04:27;37.10;55.10
569;DHT22;269;48.884;9.192;2022-07-11T15:06:54;38.20;53.20
569;DHT22;269;48.884;9.192;2022-07-11T15:09:39;40.10;51.40
569;DHT22;269;48.884;9.192;2022-07-11T15:12:24;41.80;48.70
569;DHT22;269;48.884;9.192;2022-07-11T15:14:54;42.30;46.80
569;DHT22;269;48.884;9.192;2022-07-11T15:17:21;41.50;46.70
569;DHT22;269;48.884;9.192;2022-07-11T15:19:48;41.20;46.60
569;DHT22;269;48.884;9.192;2022-07-11T15:22:15;41.50;46.70
569;DHT22;269;48.884;9.192;2022-07-11T15:24:44;42.20;46.00
569;DHT22;269;48.884;9.192;2022-07-11T15:27:11;42.20;45.40
569;DHT22;269;48.884;9.192;2022-07-11T15:29:40;42.10;45.00
569;DHT22;269;48.884;9.192;2022-07-11T15:32:07;42.20;44.50
569;DHT22;269;48.884;9.192;2022-07-11T15:34:34;41.90;44.30
569;DHT22;269;48.884;9.192;2022-07-11T15:37:02;40.80;44.80
569;DHT22;269;48.884;9.192;2022-07-11T15:39:30;39.50;45.70
569;DHT22;269;48.884;9.192;2022-07-11T15:41:56;38.80;46.70
569;DHT22;269;48.884;9.192;2022-07-11T15:44:24;37.60;47.20
569;DHT22;269;48.884;9.192;2022-07-11T15:46:53;36.50;48.80
569;DHT22;269;48.884;9.192;2022-07-11T15:49:20;35.60;50.20
569;DHT22;269;48.884;9.192;2022-07-11T15:51:47;34.80;51.00
569;DHT22;269;48.884;9.192;2022-07-11T15:54:14;33.90;52.40
569;DHT22;269;48.884;9.192;2022-07-11T15:56:41;33.00;53.90
569;DHT22;269;48.884;9.192;2022-07-11T15:59:14;32.90;54.60
569;DHT22;269;48.884;9.192;2022-07-11T16:01:41;33.00;54.30
569;DHT22;269;48.884;9.192;2022-07-11T16:04:10;32.60;55.00
569;DHT22;269;48.884;9.192;2022-07-11T16:06:37;32.40;55.70
569;DHT22;269;48.884;9.192;2022-07-11T16:09:04;31.90;56.10
569;DHT22;269;48.884;9.192;2022-07-11T16:11:32;31.50;57.40
569;DHT22;269;48.884;9.192;2022-07-11T16:13:59;30.90;57.90
569;DHT22;269;48.884;9.192;2022-07-11T16:16:26;30.30;58.90
569;DHT22;269;48.884;9.192;2022-07-11T16:18:54;29.60;59.80
569;DHT22;269;48.884;9.192;2022-07-11T16:21:23;29.20;60.70
569;DHT22;269;48.884;9.192;2022-07-11T16:23:50;28.60;61.70
569;DHT22;269;48.884;9.192;2022-07-11T16:26:18;28.20;62.60
569;DHT22;269;48.884;9.192;2022-07-11T16:28:45;27.90;64.80
569;DHT22;269;48.884;9.192;2022-07-11T16:31:13;27.70;65.60
569;DHT22;269;48.884;9.192;2022-07-11T16:33:41;27.30;65.70
569;DHT22;269;48.884;9.192;2022-07-11T16:36:08;27.10;66.50
569;DHT22;269;48.884;9.192;2022-07-11T16:38:36;26.90;67.90
569;DHT22;269;48.884;9.192;2022-07-11T16:41:03;26.70;68.10
569;DHT22;269;48.884;9.192;2022-07-11T16:43:48;26.60;68.30
569;DHT22;269;48.884;9.192;2022-07-11T16:46:16;26.50;69.10
569;DHT22;269;48.884;9.192;2022-07-11T16:48:43;26.40;69.20
569;DHT22;269;48.884;9.192;2022-07-11T16:51:10;26.30;68.90
569;DHT22;269;48.884;9.192;2022-07-11T16:53:42;26.20;69.40
569;DHT22;269;48.884;9.192;2022-07-11T16:56:10;26.00;70.40
569;DHT22;269;48.884;9.192;2022-07-11T16:58:37;25.90;71.30
569;DHT22;269;48.884;9.192;2022-07-11T17:01:06;25.90;71.70